createdAt,value
2023-04-29T00:01:44.768Z,3.70
2023-04-29T00:04:49.120Z,2.80
2023-04-29T00:07:54.930Z,3.45
2023-04-29T00:10:59.165Z,3.38
2023-04-29T00:14:03.772Z,3.88
2023-04-29T00:17:10.247Z,3.35
2023-04-29T00:20:16.722Z,3.20
2023-04-29T00:23:20.534Z,4.13
2023-04-29T00:26:28.938Z,3.63
2023-04-29T00:29:33.697Z,3.50
2023-04-29T00:32:39.013Z,3.88
2023-04-29T00:35:43.233Z,3.60
2023-04-29T00:38:46.872Z,3.53
2023-04-29T00:41:50.800Z,3.28
2023-04-29T00:44:54.304Z,3.53
2023-04-29T00:48:04.572Z,3.60
2023-04-29T00:51:09.633Z,3.30
2023-04-29T00:54:16.588Z,2.72
2023-04-29T00:57:21.519Z,3.28
2023-04-29T01:00:31.260Z,3.45
2023-04-29T01:03:36.952Z,3.35
2023-04-29T01:06:49.498Z,3.63
2023-04-29T01:09:57.691Z,3.17
2023-04-29T01:13:11.596Z,3.67
2023-04-29T01:16:22.440Z,4.03
2023-04-29T01:19:36.388Z,4.05
2023-04-29T01:22:40.883Z,3.60
2023-04-29T01:25:46.526Z,3.55
2023-04-29T01:29:05.649Z,3.85
2023-04-29T01:32:27.093Z,3.67
2023-04-29T01:35:36.503Z,3.92
2023-04-29T01:38:43.938Z,3.15
2023-04-29T01:41:53.241Z,3.58
2023-04-29T01:45:02.782Z,3.67
2023-04-29T01:48:08.709Z,3.10
2023-04-29T01:51:13.228Z,3.55
2023-04-29T01:54:19.056Z,3.13
2023-04-29T01:57:26.968Z,3.83
2023-04-29T02:00:47.339Z,3.50
2023-04-29T02:03:55.922Z,3.55
2023-04-29T02:07:00.095Z,3.22
2023-04-29T02:10:13.662Z,4.10
2023-04-29T02:13:51.393Z,3.30
2023-04-29T02:16:56.415Z,3.40
2023-04-29T02:20:03.181Z,4.00
2023-04-29T02:23:09.893Z,4.10
2023-04-29T02:26:15.529Z,4.05
2023-04-29T02:29:22.774Z,4.18
2023-04-29T02:32:31.558Z,4.65
2023-04-29T02:35:35.329Z,4.40
2023-04-29T02:38:42.538Z,5.05
2023-04-29T02:41:46.413Z,4.80
2023-04-29T02:44:52.393Z,4.43
2023-04-29T02:47:56.092Z,5.10
2023-04-29T02:51:00.582Z,4.57
2023-04-29T02:54:11.448Z,5.43
2023-04-29T02:57:15.009Z,5.35
2023-04-29T03:00:20.366Z,5.20
2023-04-29T03:03:27.743Z,4.70
2023-04-29T03:06:34.399Z,5.40
2023-04-29T03:09:38.112Z,5.20
2023-04-29T03:12:42.830Z,5.72
2023-04-29T03:15:48.918Z,4.93
2023-04-29T03:18:53.238Z,4.43
2023-04-29T03:21:56.949Z,4.72
2023-04-29T03:25:00.623Z,4.53
2023-04-29T03:28:05.487Z,4.78
2023-04-29T03:31:11.869Z,5.90
2023-04-29T03:34:16.055Z,4.50
2023-04-29T03:37:26.150Z,4.30
2023-04-29T03:40:37.621Z,5.03
2023-04-29T03:43:43.946Z,4.65
2023-04-29T03:46:51.115Z,4.13
2023-04-29T03:49:54.912Z,4.40
2023-04-29T03:52:58.525Z,5.63
2023-04-29T03:56:03.181Z,4.75
2023-04-29T03:59:06.793Z,5.55
2023-04-29T04:02:12.662Z,4.95
2023-04-29T04:05:20.094Z,4.55
2023-04-29T04:08:30.144Z,5.20
2023-04-29T04:11:49.905Z,5.20
2023-04-29T04:14:55.968Z,5.40
2023-04-29T04:18:01.931Z,5.38
2023-04-29T04:21:08.057Z,4.68
2023-04-29T04:24:12.817Z,5.43
2023-04-29T04:27:18.579Z,5.13
2023-04-29T04:30:25.128Z,4.68
2023-04-29T04:33:31.098Z,4.80
2023-04-29T04:36:36.407Z,5.10
2023-04-29T04:39:40.893Z,5.47
2023-04-29T04:42:48.714Z,5.70
2023-04-29T04:45:53.086Z,6.18
2023-04-29T04:48:58.208Z,5.78
2023-04-29T04:52:02.592Z,5.55
2023-04-29T04:55:08.366Z,5.40
2023-04-29T04:58:13.931Z,5.40
2023-04-29T05:01:17.750Z,4.75
2023-04-29T05:04:23.795Z,5.25
2023-04-29T05:07:27.408Z,5.28
2023-04-29T05:10:41.158Z,4.63
2023-04-29T05:13:52.220Z,4.93
2023-04-29T05:17:01.092Z,4.72
2023-04-29T05:20:08.343Z,4.88
2023-04-29T05:23:15.302Z,4.60
2023-04-29T05:26:24.416Z,4.20
2023-04-29T05:29:32.846Z,3.53
2023-04-29T05:32:39.543Z,4.65
2023-04-29T05:35:49.753Z,4.30
2023-04-29T05:38:54.734Z,4.93
2023-04-29T05:41:59.151Z,4.30
2023-04-29T05:45:14.126Z,4.72
2023-04-29T05:48:18.067Z,4.93
2023-04-29T05:51:28.431Z,4.57
2023-04-29T05:54:32.217Z,4.75
2023-04-29T05:57:36.483Z,4.22
2023-04-29T06:00:40.738Z,4.65
2023-04-29T06:03:51.449Z,4.20
2023-04-29T06:07:09.400Z,3.97
2023-04-29T06:10:38.483Z,4.10
2023-04-29T06:13:43.461Z,4.03
2023-04-29T06:16:55.247Z,4.45
2023-04-29T06:20:00.101Z,3.47
2023-04-29T06:23:09.470Z,3.88
2023-04-29T06:26:13.999Z,3.55
2023-04-29T06:29:18.072Z,4.30
2023-04-29T06:32:21.843Z,3.80
2023-04-29T06:35:25.724Z,3.92
2023-04-29T06:38:47.177Z,3.88
2023-04-29T06:42:14.103Z,3.95
2023-04-29T06:45:42.586Z,3.65
2023-04-29T06:48:55.140Z,3.50
2023-04-29T06:52:02.402Z,3.83
2023-04-29T06:55:12.650Z,3.72
2023-04-29T06:58:20.863Z,4.10
2023-04-29T07:01:26.177Z,3.92
2023-04-29T07:04:31.298Z,3.38
2023-04-29T07:07:36.694Z,3.38
2023-04-29T07:10:42.620Z,3.33
2023-04-29T07:13:46.474Z,3.10
2023-04-29T07:16:51.649Z,3.22
2023-04-29T07:19:55.333Z,3.45
2023-04-29T07:23:01.707Z,3.28
2023-04-29T07:26:13.885Z,3.42
2023-04-29T07:29:20.072Z,3.30
2023-04-29T07:32:23.996Z,3.58
2023-04-29T07:35:27.705Z,3.45
2023-04-29T07:38:33.888Z,3.58
2023-04-29T07:41:39.207Z,3.35
2023-04-29T07:44:45.759Z,3.65
2023-04-29T07:47:51.888Z,3.80
2023-04-29T07:51:00.341Z,3.33
2023-04-29T07:54:04.825Z,3.58
2023-04-29T07:57:14.015Z,3.30
2023-04-29T08:00:18.116Z,3.42
2023-04-29T08:03:25.824Z,3.47
2023-04-29T08:06:30.839Z,4.50
2023-04-29T08:09:34.795Z,3.60
2023-04-29T08:12:41.178Z,3.20
2023-04-29T08:15:53.334Z,3.40
2023-04-29T08:18:57.917Z,3.20
2023-04-29T08:22:04.165Z,3.85
2023-04-29T08:25:08.500Z,4.18
2023-04-29T08:28:14.950Z,4.13
2023-04-29T08:31:18.983Z,3.63
2023-04-29T08:34:26.540Z,3.03
2023-04-29T08:37:30.254Z,3.08
2023-04-29T08:40:36.181Z,3.42
2023-04-29T08:43:41.574Z,3.20
2023-04-29T08:46:49.852Z,3.10
2023-04-29T08:49:55.135Z,3.10
2023-04-29T08:52:59.101Z,3.40
2023-04-29T08:56:08.956Z,3.30
2023-04-29T08:59:15.507Z,3.75
2023-04-29T09:02:26.571Z,4.28
2023-04-29T09:05:32.026Z,3.33
2023-04-29T09:08:36.896Z,3.25
2023-04-29T09:11:40.710Z,3.72
2023-04-29T09:14:46.014Z,4.05
2023-04-29T09:17:54.453Z,3.08
2023-04-29T09:20:59.180Z,3.30
2023-04-29T09:24:04.279Z,3.42
2023-04-29T09:27:09.071Z,3.42
2023-04-29T09:30:16.700Z,3.03
2023-04-29T09:33:20.707Z,3.95
2023-04-29T09:36:45.243Z,4.10
2023-04-29T09:39:49.434Z,3.20
2023-04-29T09:42:53.722Z,3.28
2023-04-29T09:45:59.692Z,3.50
2023-04-29T09:49:06.394Z,3.28
2023-04-29T09:52:13.087Z,3.33
2023-04-29T09:55:17.491Z,3.40
2023-04-29T09:58:30.197Z,3.08
2023-04-29T10:01:36.795Z,3.08
2023-04-29T10:04:43.805Z,3.67
2023-04-29T10:07:50.313Z,3.90
2023-04-29T10:10:57.536Z,4.07
2023-04-29T10:14:02.401Z,3.40
2023-04-29T10:17:13.444Z,3.92
2023-04-29T10:20:22.753Z,4.03
2023-04-29T10:23:27.595Z,3.63
2023-04-29T10:26:33.495Z,3.53
2023-04-29T10:29:40.100Z,3.28
2023-04-29T10:32:52.085Z,3.28
2023-04-29T10:35:58.576Z,3.25
2023-04-29T10:39:06.096Z,3.45
2023-04-29T10:42:17.795Z,3.30
2023-04-29T10:45:22.520Z,3.38
2023-04-29T10:48:31.398Z,4.00
2023-04-29T10:51:37.686Z,3.08
2023-04-29T10:54:45.765Z,3.75
2023-04-29T10:57:49.598Z,3.28
2023-04-29T11:01:01.234Z,3.70
2023-04-29T11:04:07.601Z,2.85
2023-04-29T11:07:12.337Z,3.75
2023-04-29T11:10:15.724Z,3.88
2023-04-29T11:13:40.546Z,3.03
2023-04-29T11:16:50.575Z,3.47
2023-04-29T11:19:57.144Z,3.95
2023-04-29T11:23:01.865Z,3.58
2023-04-29T11:26:05.713Z,4.10
2023-04-29T11:29:10.496Z,3.80
2023-04-29T11:32:14.265Z,3.40
2023-04-29T11:35:20.376Z,3.22
2023-04-29T11:38:26.597Z,4.30
2023-04-29T11:41:31.467Z,3.13
2023-04-29T11:44:38.686Z,2.80
2023-04-29T11:47:48.261Z,2.78
2023-04-29T11:50:55.429Z,2.75
2023-04-29T11:53:59.691Z,3.20
2023-04-29T11:57:06.273Z,2.80
2023-04-29T12:00:13.186Z,3.55
2023-04-29T12:03:19.933Z,3.33
2023-04-29T12:06:28.964Z,3.00
2023-04-29T12:09:44.126Z,3.33
2023-04-29T12:12:47.777Z,3.25
2023-04-29T12:15:52.473Z,3.15
2023-04-29T12:18:56.217Z,3.03
2023-04-29T12:22:02.410Z,3.08
2023-04-29T12:25:08.601Z,3.38
2023-04-29T12:28:19.304Z,3.08
2023-04-29T12:31:24.503Z,3.35
2023-04-29T12:34:31.803Z,3.17
2023-04-29T12:37:36.914Z,3.17
2023-04-29T12:40:40.643Z,3.03
2023-04-29T12:43:46.367Z,3.08
2023-04-29T12:46:49.933Z,2.97
2023-04-29T12:49:54.693Z,3.20
2023-04-29T12:53:00.539Z,3.10
2023-04-29T12:56:08.064Z,2.60
2023-04-29T12:59:14.364Z,2.67
2023-04-29T13:02:19.708Z,2.63
2023-04-29T13:05:23.671Z,2.50
2023-04-29T13:08:31.990Z,3.30
2023-04-29T13:11:35.785Z,3.20
2023-04-29T13:14:39.660Z,2.67
2023-04-29T13:17:43.736Z,2.97
2023-04-29T13:20:55.526Z,2.53
2023-04-29T13:24:03.678Z,3.00
2023-04-29T13:27:10.501Z,3.40
2023-04-29T13:30:15.069Z,2.58
2023-04-29T13:33:19.570Z,2.78
2023-04-29T13:36:23.521Z,2.63
2023-04-29T13:39:30.274Z,2.58
2023-04-29T13:42:39.130Z,2.67
2023-04-29T13:45:49.415Z,2.13
2023-04-29T14:04:38.731Z,1.42
2023-04-29T14:07:42.570Z,1.40
2023-04-29T14:10:48.014Z,1.98
2023-04-29T14:13:58.515Z,2.60
2023-04-29T14:17:10.870Z,2.13
2023-04-29T14:20:21.860Z,1.90
2023-04-29T14:23:27.902Z,1.98
2023-04-29T14:26:33.929Z,2.00
2023-04-29T14:29:37.471Z,1.73
2023-04-29T14:32:41.061Z,1.92
2023-04-29T14:35:44.766Z,1.65
2023-04-29T14:38:48.609Z,2.45
2023-04-29T14:41:53.741Z,2.22
2023-04-29T14:44:57.260Z,1.98
2023-04-29T14:48:01.974Z,1.60
2023-04-29T14:51:06.351Z,1.85
2023-04-29T14:54:16.901Z,1.70
2023-04-29T14:57:21.914Z,1.23
2023-04-29T15:00:26.982Z,1.27
2023-04-29T15:03:30.526Z,1.80
2023-04-29T15:06:34.292Z,1.63
2023-04-29T15:09:39.029Z,1.27
2023-04-29T15:12:45.270Z,1.30
2023-04-29T15:15:51.151Z,1.40
2023-04-29T15:18:55.096Z,1.33
2023-04-29T15:21:59.044Z,1.25
2023-04-29T15:25:07.003Z,1.55
2023-04-29T15:28:11.974Z,1.30
2023-04-29T15:31:23.587Z,0.88
2023-04-29T15:34:30.387Z,1.23
2023-04-29T15:37:36.074Z,1.02
2023-04-29T15:40:39.658Z,1.00
2023-04-29T15:43:45.854Z,1.20
2023-04-29T15:46:49.976Z,1.10
2023-04-29T15:49:56.472Z,1.23
2023-04-29T15:53:05.469Z,1.05
2023-04-29T15:56:09.174Z,0.75
2023-04-29T15:59:15.882Z,0.90
2023-04-29T16:02:40.740Z,0.75
2023-04-29T16:05:46.717Z,0.70
2023-04-29T16:08:50.792Z,0.70
2023-04-29T16:11:55.366Z,0.90
2023-04-29T16:15:08.764Z,1.05
2023-04-29T16:18:14.344Z,0.82
2023-04-29T16:21:17.783Z,1.10
2023-04-29T16:24:21.683Z,1.10
2023-04-29T16:27:32.925Z,1.05
2023-04-29T16:30:38.319Z,1.38
2023-04-29T16:33:42.753Z,1.13
2023-04-29T16:36:46.282Z,1.17
2023-04-29T16:39:51.372Z,0.85
2023-04-29T16:42:57.344Z,0.98
2023-04-29T16:46:04.380Z,1.10
2023-04-29T16:49:11.782Z,0.73
2023-04-29T16:52:15.840Z,0.90
2023-04-29T16:55:22.352Z,1.20
2023-04-29T16:58:26.056Z,1.00
2023-04-29T17:01:32.201Z,1.25
2023-04-29T17:04:36.863Z,1.30
2023-04-29T17:07:42.398Z,1.45
2023-04-29T17:10:49.286Z,1.08
2023-04-29T17:13:54.684Z,1.00
2023-04-29T17:17:00.575Z,1.40
2023-04-29T17:20:05.125Z,1.33
2023-04-29T17:23:08.995Z,1.00
2023-04-29T17:26:13.092Z,1.42
2023-04-29T17:29:17.086Z,1.00
2023-04-29T17:32:28.712Z,1.63
2023-04-29T17:35:32.477Z,1.10
2023-04-29T17:38:36.170Z,1.05
2023-04-29T17:41:51.372Z,1.17
2023-04-29T17:44:57.554Z,1.60
2023-04-29T17:48:27.583Z,1.67
2023-04-29T17:51:43.195Z,1.27
2023-04-29T17:54:48.974Z,1.42
2023-04-29T17:57:53.079Z,1.27
2023-04-29T18:00:57.720Z,1.27
2023-04-29T18:04:01.335Z,1.17
2023-04-29T18:07:06.911Z,1.33
2023-04-29T18:10:11.047Z,1.40
2023-04-29T18:13:20.005Z,1.10
2023-04-29T18:16:24.016Z,1.15
2023-04-29T18:19:28.167Z,1.05
2023-04-29T18:22:34.522Z,1.17
2023-04-29T18:25:39.204Z,1.13
2023-04-29T18:28:42.759Z,1.27
2023-04-29T18:31:47.096Z,1.10
2023-04-29T18:34:51.933Z,0.95
2023-04-29T18:38:01.788Z,1.02
2023-04-29T18:41:06.624Z,0.93
2023-04-29T18:44:10.835Z,1.00
2023-04-29T18:47:16.511Z,1.05
2023-04-29T18:50:20.977Z,1.10
2023-04-29T18:53:27.806Z,0.82
2023-04-29T18:56:31.744Z,0.95
2023-04-29T18:59:38.068Z,1.17
2023-04-29T19:02:44.106Z,0.70
2023-04-29T19:05:51.570Z,0.70
2023-04-29T19:09:12.067Z,1.30
2023-04-29T19:12:15.779Z,1.30
2023-04-29T19:15:19.767Z,0.82
2023-04-29T19:18:24.052Z,0.90
2023-04-29T19:21:29.230Z,1.10
2023-04-29T19:24:37.149Z,0.77
2023-04-29T19:27:45.083Z,1.00
2023-04-29T19:30:52.889Z,0.93
2023-04-29T19:33:56.501Z,0.82
2023-04-29T19:37:01.133Z,1.33
2023-04-29T19:40:06.704Z,0.82
2023-04-29T19:43:11.024Z,0.93
2023-04-29T19:46:15.182Z,0.93
2023-04-29T19:49:19.813Z,1.25
2023-04-29T19:52:26.007Z,0.75
2023-04-29T19:55:32.266Z,0.73
2023-04-29T19:58:36.129Z,1.00
2023-04-29T20:01:41.137Z,0.93
2023-04-29T20:04:48.392Z,1.08
2023-04-29T20:08:07.479Z,0.88
2023-04-29T20:11:16.033Z,0.98
2023-04-29T20:14:19.486Z,0.98
2023-04-29T20:17:43.188Z,1.13
2023-04-29T20:20:47.197Z,0.88
2023-04-29T20:23:51.386Z,0.88
2023-04-29T20:26:58.654Z,1.20
2023-04-29T20:30:08.919Z,1.13
2023-04-29T20:33:14.059Z,1.23
2023-04-29T20:36:17.963Z,1.05
2023-04-29T20:39:21.466Z,1.50
2023-04-29T20:42:27.002Z,1.08
2023-04-29T20:45:31.677Z,0.98
2023-04-29T20:48:36.899Z,1.10
2023-04-29T20:51:43.488Z,0.98
2023-04-29T20:54:50.288Z,1.08
2023-04-29T20:57:58.718Z,0.73
2023-04-29T21:01:07.326Z,1.38
2023-04-29T21:04:11.446Z,1.08
2023-04-29T21:07:15.608Z,1.52
2023-04-29T21:10:22.843Z,0.77
2023-04-29T21:13:29.673Z,0.82
2023-04-29T21:16:33.698Z,1.30
2023-04-29T21:19:39.462Z,1.48
2023-04-29T21:22:44.939Z,1.13
2023-04-29T21:25:49.671Z,0.90
2023-04-29T21:28:55.484Z,0.90
2023-04-29T21:32:02.268Z,1.45
2023-04-29T21:35:12.739Z,1.58
2023-04-29T21:38:16.478Z,1.10
2023-04-29T21:41:22.609Z,1.25
2023-04-29T21:44:31.095Z,0.93
2023-04-29T21:47:35.562Z,1.15
2023-04-29T21:50:41.095Z,1.17
2023-04-29T21:53:46.208Z,1.00
2023-04-29T21:56:51.831Z,1.42
2023-04-29T21:59:58.082Z,1.30
2023-04-29T22:03:16.973Z,1.45
2023-04-29T22:06:21.452Z,0.90
2023-04-29T22:09:26.244Z,1.35
2023-04-29T22:12:30.588Z,1.23
2023-04-29T22:15:36.653Z,1.15
2023-04-29T22:18:40.312Z,1.35
2023-04-29T22:21:46.198Z,1.80
2023-04-29T22:24:52.396Z,1.65
2023-04-29T22:27:56.904Z,1.23
2023-04-29T22:31:02.504Z,1.52
2023-04-29T22:34:10.568Z,1.48
2023-04-29T22:37:14.927Z,1.80
2023-04-29T22:40:23.878Z,1.30
2023-04-29T22:43:35.658Z,1.38
2023-04-29T22:46:41.220Z,1.20
2023-04-29T22:49:45.137Z,1.30
2023-04-29T22:52:48.950Z,1.45
2023-04-29T22:55:57.792Z,1.40
2023-04-29T22:59:09.571Z,1.80
2023-04-29T23:02:16.422Z,1.30
2023-04-29T23:05:22.191Z,1.17
2023-04-29T23:08:38.568Z,1.02
2023-04-29T23:11:42.716Z,1.27
2023-04-29T23:14:47.997Z,1.90
2023-04-29T23:17:53.196Z,1.38
2023-04-29T23:20:58.187Z,1.40
2023-04-29T23:24:02.492Z,1.48
2023-04-29T23:27:07.019Z,1.15
2023-04-29T23:30:12.326Z,1.02
2023-04-29T23:33:19.222Z,1.17
2023-04-29T23:36:24.961Z,1.05
2023-04-29T23:39:28.565Z,1.45
2023-04-29T23:42:32.469Z,1.60
2023-04-29T23:45:37.094Z,1.85
2023-04-29T23:48:42.099Z,1.25
2023-04-29T23:51:49.449Z,1.48
2023-04-29T23:54:53.165Z,1.15
2023-04-29T23:57:56.749Z,1.50
